Time;durP1;ratioP1;P1;durP2;ratioP2;P2;SDS_P1;SDS_P2;PMS_P1;PMS_P2;Temp;Humidity;BMP_temperature;BMP_pressure;BME280_temperature;BME280_humidity;BME280_pressure;Samples;Min_cycle;Max_cycle;Signal;HPM_P1;HPM_P2
2023/01/17 00:02:19;;;;;;;10.82;6.05;;;;;;;2.43;56.76;97642.97;4978232;28;20114;-64
2023/01/17 00:10:22;;;;;;;9.15;5.35;;;;;;;2.38;56.73;97636.41;5005847;28;20056;-68
2023/01/17 00:12:52;;;;;;;11.63;6.55;;;;;;;2.15;57.21;97646.28;5006661;28;20470;-68
2023/01/17 00:15:19;;;;;;;10.20;6.25;;;;;;;2.33;56.83;97647.84;5003041;28;20620;-68
2023/01/17 00:17:46;;;;;;;12.23;5.97;;;;;;;2.28;57.19;97649.00;5001660;28;20043;-68
2023/01/17 01:35:41;;;;;;;6.63;2.80;;;;;;;0.69;59.75;97665.22;4990396;28;20025;-63
2023/01/17 01:38:09;;;;;;;6.68;3.00;;;;;;;0.85;58.98;97669.59;4986906;28;20053;-63
2023/01/17 01:40:41;;;;;;;7.80;3.88;;;;;;;1.06;58.23;97673.63;5000717;28;20039;-63
2023/01/17 01:43:11;;;;;;;7.30;3.30;;;;;;;0.83;59.29;97666.25;4997777;28;20042;-62
2023/01/17 01:45:43;;;;;;;5.93;3.28;;;;;;;1.02;58.79;97681.59;4999827;28;20030;-63
2023/01/17 01:48:35;;;;;;;4.68;2.42;;;;;;;1.17;58.67;97680.81;4999338;28;20119;-62
2023/01/17 01:51:12;;;;;;;4.35;2.83;;;;;;;0.87;59.61;97681.44;4986514;28;20041;-63
2023/01/17 01:53:41;;;;;;;4.85;2.53;;;;;;;1.04;59.10;97680.59;4998750;28;20484;-62
2023/01/17 01:56:10;;;;;;;5.45;2.75;;;;;;;1.20;58.62;97670.34;5001851;28;20030;-62
2023/01/17 01:58:36;;;;;;;4.07;2.25;;;;;;;1.28;58.89;97682.78;4992511;28;20132;-63
2023/01/17 02:01:04;;;;;;;4.65;2.08;;;;;;;0.89;59.78;97671.09;5006043;28;20037;-63
2023/01/17 02:03:34;;;;;;;3.33;1.25;;;;;;;1.00;59.79;97686.81;5011723;28;20644;-64
2023/01/17 02:06:13;;;;;;;3.10;0.32;;;;;;;0.88;60.09;97690.84;5001165;28;20057;-63
2023/01/17 02:08:42;;;;;;;2.70;0.68;;;;;;;1.09;59.96;97693.22;4986236;28;20034;-62
2023/01/17 02:11:18;;;;;;;3.35;0.40;;;;;;;1.38;59.06;97698.59;4990512;28;20033;-62
2023/01/17 02:13:43;;;;;;;0.63;0.30;;;;;;;1.13;59.91;97710.16;5005391;28;20053;-63
2023/01/17 02:16:49;;;;;;;1.98;0.00;;;;;;;0.53;61.19;97709.78;5002762;28;20033;-70
2023/01/17 02:19:49;;;;;;;0.98;0.00;;;;;;;0.42;60.72;97708.56;5003218;28;20056;-69
2023/01/17 02:22:29;;;;;;;0.80;0.00;;;;;;;0.20;60.81;97725.91;4986015;28;20056;-67
2023/01/17 02:25:35;;;;;;;6.20;0.13;;;;;;;0.13;61.20;97732.25;5003784;28;20122;-68
2023/01/17 02:28:39;;;;;;;3.78;0.10;;;;;;;-0.37;62.02;97728.53;4986926;28;20469;-63
2023/01/17 02:31:13;;;;;;;0.20;0.00;;;;;;;-0.27;62.63;97736.66;4986141;28;20121;-62
2023/01/17 02:33:56;;;;;;;5.78;0.20;;;;;;;-0.18;62.17;97744.78;4993353;28;20038;-60
2023/01/17 02:36:27;;;;;;;0.10;0.00;;;;;;;0.02;62.49;97735.31;5002726;28;20029;-64
2023/01/17 02:39:28;;;;;;;3.17;0.40;;;;;;;0.20;61.52;97749.84;5003571;28;20057;-65
2023/01/17 02:42:03;;;;;;;0.35;0.00;;;;;;;0.49;61.04;97745.88;4982464;28;20037;-63
2023/01/17 02:44:29;;;;;;;5.18;0.10;;;;;;;0.60;60.61;97753.09;5003091;28;20410;-65
2023/01/17 02:46:58;;;;;;;5.13;0.25;;;;;;;0.56;60.42;97761.84;4977874;28;20046;-65
2023/01/17 02:49:27;;;;;;;2.50;0.10;;;;;;;0.57;60.66;97760.94;5002353;28;20140;-63
2023/01/17 02:52:13;;;;;;;1.35;0.38;;;;;;;0.48;60.48;97771.69;5002208;28;20072;-63
2023/01/17 02:55:11;;;;;;;0.43;0.20;;;;;;;0.15;61.43;97781.81;4987952;28;20080;-63
2023/01/17 02:57:55;;;;;;;2.28;0.20;;;;;;;0.09;61.16;97788.06;5012736;28;20042;-63
2023/01/17 03:00:32;;;;;;;6.07;0.00;;;;;;;0.61;60.00;97795.03;5005260;28;20034;-66
2023/01/17 03:03:21;;;;;;;5.85;0.10;;;;;;;0.23;61.07;97790.84;5000485;28;20265;-63
2023/01/17 03:06:01;;;;;;;1.50;0.10;;;;;;;-0.01;61.47;97797.09;5005615;28;20029;-63
2023/01/17 03:08:29;;;;;;;5.82;0.57;;;;;;;-0.18;61.79;97810.69;4983682;28;22265;-66
2023/01/17 03:10:56;;;;;;;3.13;0.08;;;;;;;-0.44;61.46;97806.69;5002830;28;20834;-64
2023/01/17 03:13:21;;;;;;;3.33;0.13;;;;;;;-0.14;60.80;97823.31;4997287;28;20414;-65
2023/01/17 03:15:49;;;;;;;1.02;0.00;;;;;;;-0.03;60.32;97824.59;4983469;28;20034;-65
2023/01/17 03:18:15;;;;;;;8.60;0.40;;;;;;;0.37;59.01;97827.88;4998490;28;20037;-63
2023/01/17 03:20:44;;;;;;;5.68;0.20;;;;;;;0.50;58.98;97831.50;5003616;28;20569;-63
2023/01/17 03:23:09;;;;;;;3.38;0.10;;;;;;;0.73;58.33;97838.16;5000756;28;20135;-63
2023/01/17 03:25:34;;;;;;;4.95;0.10;;;;;;;-0.07;59.98;97853.84;5001379;28;20033;-67
2023/01/17 03:28:00;;;;;;;4.85;0.13;;;;;;;0.21;59.12;97854.28;5002199;28;20467;-61
2023/01/17 03:30:25;;;;;;;5.60;0.68;;;;;;;0.22;58.52;97855.09;4987993;28;22091;-63
2023/01/17 03:32:51;;;;;;;1.15;0.10;;;;;;;0.70;57.13;97856.28;5001766;28;20111;-62
2023/01/17 03:35:19;;;;;;;5.30;0.38;;;;;;;0.22;57.75;97863.63;5002835;28;20037;-63
2023/01/17 03:37:47;;;;;;;2.22;0.20;;;;;;;0.30;57.14;97873.59;4992957;28;20042;-62
2023/01/17 03:40:15;;;;;;;1.67;0.50;;;;;;;0.15;56.89;97880.25;5003282;28;20886;-62
2023/01/17 03:42:42;;;;;;;4.10;0.30;;;;;;;0.30;56.36;97880.44;4999750;28;20050;-63
2023/01/17 03:45:08;;;;;;;1.63;0.10;;;;;;;0.55;55.98;97873.28;4985236;28;20120;-64
2023/01/17 03:47:34;;;;;;;6.35;1.10;;;;;;;0.61;55.86;97888.41;5003326;28;20056;-63
2023/01/17 03:50:03;;;;;;;6.90;0.10;;;;;;;0.73;56.21;97889.56;4983805;28;20116;-63
2023/01/17 03:52:29;;;;;;;5.05;0.63;;;;;;;0.51;57.07;97907.72;4991901;28;20053;-63
2023/01/17 03:54:54;;;;;;;3.08;0.20;;;;;;;0.47;56.24;97898.50;5003155;28;20123;-63
2023/01/17 03:57:22;;;;;;;8.20;0.25;;;;;;;0.24;55.71;97900.38;4999309;28;20045;-63
2023/01/17 03:59:47;;;;;;;5.13;0.10;;;;;;;0.76;53.74;97911.72;5001726;28;20450;-66
2023/01/17 04:02:13;;;;;;;2.10;0.20;;;;;;;0.71;53.46;97913.69;5001045;28;20048;-64
2023/01/17 04:04:40;;;;;;;5.68;0.20;;;;;;;0.99;52.20;97924.34;4999687;28;20854;-63
2023/01/17 04:07:06;;;;;;;2.88;0.35;;;;;;;1.10;52.43;97927.22;4990492;28;20100;-63
2023/01/17 04:09:33;;;;;;;2.67;0.50;;;;;;;0.65;52.67;97927.66;4985450;28;20152;-64
2023/01/17 04:12:01;;;;;;;6.07;0.10;;;;;;;0.66;52.47;97939.63;5002252;28;20494;-63
2023/01/17 04:14:26;;;;;;;3.08;0.10;;;;;;;0.97;52.15;97944.16;5001649;28;20119;-63
2023/01/17 04:16:52;;;;;;;2.10;0.25;;;;;;;0.74;52.49;97944.38;4999870;28;20037;-62
2023/01/17 04:19:18;;;;;;;5.28;0.20;;;;;;;0.93;52.50;97952.09;4998684;28;20411;-64
2023/01/17 04:21:43;;;;;;;2.00;0.10;;;;;;;0.32;53.44;97948.00;5002568;28;20026;-64
2023/01/17 04:24:08;;;;;;;4.22;0.60;;;;;;;0.56;53.21;97954.59;5000175;28;20079;-64
2023/01/17 04:26:34;;;;;;;7.15;0.10;;;;;;;0.99;51.59;97956.91;4984378;28;20033;-64
2023/01/17 04:29:00;;;;;;;1.90;0.40;;;;;;;0.88;51.30;97960.00;4990755;28;20042;-65
2023/01/17 04:31:25;;;;;;;5.18;0.90;;;;;;;0.57;50.62;97968.28;5000110;28;20563;-64
2023/01/17 04:33:50;;;;;;;6.30;0.30;;;;;;;0.80;49.90;97964.69;4998170;28;20056;-65
2023/01/17 04:36:18;;;;;;;3.28;0.08;;;;;;;0.48;50.50;97974.69;4999568;28;20030;-64
2023/01/17 04:38:44;;;;;;;8.02;0.10;;;;;;;1.00;49.85;97980.00;4986191;28;20502;-64
2023/01/17 04:41:09;;;;;;;9.70;0.30;;;;;;;0.61;50.23;97980.94;5001641;28;20037;-64
2023/01/17 04:43:35;;;;;;;3.78;0.10;;;;;;;0.64;50.37;97985.13;4999901;28;20068;-64
2023/01/17 04:46:00;;;;;;;4.25;0.47;;;;;;;1.29;49.64;97988.09;5000899;28;20115;-64
2023/01/17 04:48:30;;;;;;;3.40;1.05;;;;;;;0.95;49.75;97989.69;5000803;28;20057;-64
2023/01/17 04:51:15;;;;;;;2.47;0.40;;;;;;;0.89;50.28;97992.53;5002050;28;20109;-64
2023/01/17 04:53:40;;;;;;;3.63;0.08;;;;;;;0.96;50.33;97993.09;4990331;28;20754;-65
2023/01/17 04:56:06;;;;;;;2.05;0.20;;;;;;;0.76;51.54;97994.00;4999763;28;20034;-64
2023/01/17 04:58:32;;;;;;;6.30;0.10;;;;;;;1.03;51.13;98003.00;4960820;28;20065;-64
2023/01/17 05:01:05;;;;;;;1.85;0.00;;;;;;;1.51;50.83;98008.50;4997035;28;20114;-62
2023/01/17 05:03:32;;;;;;;5.45;0.65;;;;;;;1.13;51.84;98020.56;4982610;28;20453;-64
2023/01/17 05:05:57;;;;;;;6.95;0.10;;;;;;;1.15;52.55;98047.06;4999885;28;20042;-66
2023/01/17 05:08:23;;;;;;;1.95;0.10;;;;;;;0.46;55.18;98023.59;4993650;28;20046;-64
2023/01/17 05:10:49;;;;;;;2.08;0.00;;;;;;;0.15;55.62;98036.09;5000482;28;20156;-63
2023/01/17 05:13:14;;;;;;;1.95;0.00;;;;;;;0.25;55.76;98025.34;4995584;28;20049;-63
2023/01/17 05:15:40;;;;;;;3.42;0.20;;;;;;;0.48;55.01;98029.50;4997473;28;20038;-63
2023/01/17 05:18:07;;;;;;;1.00;0.10;;;;;;;0.15;55.72;98036.91;5000329;28;20080;-64
2023/01/17 05:20:34;;;;;;;14.85;0.85;;;;;;;0.52;55.17;98037.88;4998486;28;20049;-63
2023/01/17 05:23:00;;;;;;;2.08;0.10;;;;;;;0.44;55.03;98045.94;5002229;28;20041;-64
2023/01/17 05:25:28;;;;;;;7.70;0.10;;;;;;;0.57;54.45;98043.69;4984445;28;20156;-63
2023/01/17 05:27:54;;;;;;;1.10;0.10;;;;;;;0.47;54.33;98050.94;5000003;28;20042;-64
2023/01/17 05:30:20;;;;;;;3.75;0.17;;;;;;;0.59;54.24;98053.88;4996369;28;20033;-64
2023/01/17 05:32:50;;;;;;;3.63;0.10;;;;;;;0.35;54.92;98055.78;5001011;28;20041;-65
2023/01/17 05:35:22;;;;;;;1.98;0.10;;;;;;;0.34;54.52;98062.63;4993891;28;20800;-64
2023/01/17 05:37:49;;;;;;;4.70;0.10;;;;;;;0.55;53.98;98066.03;4984500;28;20133;-64
2023/01/17 05:40:20;;;;;;;3.55;0.10;;;;;;;0.52;53.73;98068.72;4995183;28;20038;-63
2023/01/17 05:42:51;;;;;;;5.97;0.20;;;;;;;0.60;52.94;98064.09;5006210;28;20038;-64
2023/01/17 05:45:19;;;;;;;3.60;0.30;;;;;;;0.43;53.29;98080.22;4996160;28;20447;-64
2023/01/17 05:47:49;;;;;;;3.75;0.13;;;;;;;0.55;52.00;98081.47;4995539;28;20046;-64
2023/01/17 05:50:23;;;;;;;11.88;0.30;;;;;;;0.70;51.51;98085.06;4997383;28;20038;-63
2023/01/17 05:52:51;;;;;;;8.55;0.30;;;;;;;0.82;51.33;98091.44;5000661;28;20567;-63
2023/01/17 05:55:17;;;;;;;7.20;0.63;;;;;;;1.11;50.07;98103.00;4997357;28;20069;-63
2023/01/17 05:57:42;;;;;;;1.90;0.10;;;;;;;1.01;50.23;98110.25;5000362;28;20040;-64
2023/01/17 06:00:11;;;;;;;3.85;0.20;;;;;;;0.72;50.33;98111.56;4997872;28;20140;-66
2023/01/17 06:02:37;;;;;;;4.50;0.20;;;;;;;0.88;50.02;98107.44;4977697;28;20665;-66
2023/01/17 06:05:02;;;;;;;1.83;0.30;;;;;;;0.84;49.95;98117.91;4983137;28;20049;-66
2023/01/17 06:07:30;;;;;;;13.88;0.85;;;;;;;1.00;49.75;98120.63;4988005;28;20592;-64
2023/01/17 06:09:58;;;;;;;3.08;0.20;;;;;;;0.87;49.53;98125.50;4984138;28;20041;-64
2023/01/17 06:12:24;;;;;;;6.47;0.75;;;;;;;1.03;49.25;98131.59;4987399;28;20474;-64
2023/01/17 06:14:49;;;;;;;6.15;0.17;;;;;;;0.69;50.12;98132.25;4982613;28;20133;-64
2023/01/17 06:17:15;;;;;;;4.85;0.35;;;;;;;0.88;49.61;98137.44;4994685;28;20582;-64
2023/01/17 06:19:42;;;;;;;5.70;0.30;;;;;;;0.78;49.91;98141.31;5001908;28;20030;-63
2023/01/17 06:22:10;;;;;;;3.13;0.15;;;;;;;1.28;49.06;98141.66;4997515;28;20091;-64
2023/01/17 06:24:38;;;;;;;4.70;0.20;;;;;;;0.99;49.39;98148.09;4982673;28;20043;-63
2023/01/17 06:27:03;;;;;;;4.60;0.32;;;;;;;1.03;49.05;98159.06;5001208;28;20038;-64
2023/01/17 06:29:29;;;;;;;3.83;0.32;;;;;;;0.62;49.68;98162.53;4994584;28;20403;-63
2023/01/17 06:31:57;;;;;;;2.75;0.10;;;;;;;0.67;49.38;98176.03;4997075;28;20098;-64
2023/01/17 06:34:22;;;;;;;5.40;0.10;;;;;;;0.29;49.80;98175.06;5000752;28;20036;-63
2023/01/17 06:36:50;;;;;;;2.72;0.17;;;;;;;0.36;49.99;98185.91;5008676;28;20033;-62
2023/01/17 06:39:15;;;;;;;10.95;0.68;;;;;;;0.43;49.61;98183.03;5001726;28;20849;-63
2023/01/17 06:41:41;;;;;;;3.00;0.30;;;;;;;0.15;50.68;98187.63;5000311;28;20034;-65
2023/01/17 06:44:08;;;;;;;2.78;0.35;;;;;;;0.09;51.44;98190.44;5001449;28;20598;-69
2023/01/17 06:46:34;;;;;;;5.32;0.38;;;;;;;0.31;51.20;98193.00;4982796;28;20044;-66
2023/01/17 06:48:59;;;;;;;2.47;0.10;;;;;;;0.56;50.84;98198.78;5003305;28;20053;-65
2023/01/17 06:51:27;;;;;;;3.40;0.10;;;;;;;0.56;50.51;98195.38;4987094;28;20037;-66
2023/01/17 06:53:52;;;;;;;3.90;0.10;;;;;;;0.64;50.45;98199.31;5003309;28;20056;-67
2023/01/17 06:56:18;;;;;;;10.02;0.20;;;;;;;0.39;51.31;98199.50;5002447;28;20037;-66
2023/01/17 06:58:50;;;;;;;3.65;0.10;;;;;;;0.71;50.25;98201.63;4987920;28;20410;-68
2023/01/17 07:01:17;;;;;;;4.82;0.20;;;;;;;0.49;50.92;98207.66;5002713;28;20041;-76
2023/01/17 07:03:53;;;;;;;3.13;0.20;;;;;;;0.48;50.65;98208.56;5003160;28;20107;-73
2023/01/17 07:06:27;;;;;;;3.15;0.30;;;;;;;0.31;50.90;98231.53;4990469;28;20581;-74
2023/01/17 07:08:54;;;;;;;2.53;0.25;;;;;;;0.46;50.53;98230.91;5004822;28;20107;-65
2023/01/17 07:11:20;;;;;;;9.18;0.20;;;;;;;0.06;51.43;98229.94;5001563;28;20450;-71
2023/01/17 07:13:48;;;;;;;2.75;0.22;;;;;;;-0.36;51.63;98234.06;4983892;28;20050;-71
2023/01/17 07:16:16;;;;;;;0.60;0.10;;;;;;;0.09;50.41;98229.78;4999072;28;20744;-65
2023/01/17 07:18:43;;;;;;;5.38;0.10;;;;;;;-0.09;49.00;98238.22;5000572;28;20069;-67
2023/01/17 07:21:13;;;;;;;1.08;0.17;;;;;;;0.09;48.25;98247.78;5004387;28;20604;-66
2023/01/17 07:23:40;;;;;;;2.22;0.00;;;;;;;-0.08;48.84;98255.28;5002684;28;20593;-71
2023/01/17 07:26:06;;;;;;;2.05;0.00;;;;;;;0.22;48.58;98251.53;5002009;28;20034;-71
2023/01/17 07:28:32;;;;;;;1.00;0.10;;;;;;;-0.20;49.84;98265.13;5003423;28;20049;-71
2023/01/17 07:30:58;;;;;;;0.90;0.10;;;;;;;-0.13;49.90;98268.31;5005865;28;20060;-68
2023/01/17 07:33:24;;;;;;;0.43;0.00;;;;;;;-0.17;51.38;98272.72;4977117;28;20050;-67
2023/01/17 07:35:51;;;;;;;0.10;0.00;;;;;;;-0.57;53.12;98289.59;5003693;28;20077;-73
2023/01/17 07:38:18;;;;;;;0.28;0.00;;;;;;;-0.83;54.45;98305.03;4991946;28;20049;-72
2023/01/17 07:40:45;;;;;;;13.80;0.60;;;;;;;-0.88;54.52;98286.44;4992635;28;20026;-71
2023/01/17 07:43:15;;;;;;;1.38;0.00;;;;;;;-0.88;54.35;98289.81;4983320;28;20526;-72
2023/01/17 07:45:51;;;;;;;4.00;0.00;;;;;;;-0.49;53.29;98288.47;4983520;28;20037;-73
2023/01/17 07:48:19;;;;;;;2.72;0.00;;;;;;;-0.54;52.70;98278.38;4984671;28;20049;-65
2023/01/17 07:50:52;;;;;;;5.68;0.25;;;;;;;-0.36;51.88;98269.16;5003072;28;20041;-65
2023/01/17 07:53:17;;;;;;;0.38;0.00;;;;;;;-0.26;51.52;98273.06;5013273;28;20042;-65
2023/01/17 07:55:54;;;;;;;1.20;0.10;;;;;;;-0.10;50.70;98277.63;4998715;28;20040;-65
2023/01/17 07:58:21;;;;;;;0.85;0.10;;;;;;;0.15;50.63;98275.81;5011383;28;20076;-66
2023/01/17 08:00:47;;;;;;;0.30;0.00;;;;;;;0.32;50.49;98271.72;5012412;28;20305;-66
2023/01/17 08:03:18;;;;;;;1.98;0.00;;;;;;;0.35;49.86;98277.59;4997193;28;20088;-65
2023/01/17 08:05:54;;;;;;;2.15;0.20;;;;;;;0.39;49.86;98283.44;5000934;28;20390;-65
2023/01/17 08:08:19;;;;;;;1.35;0.10;;;;;;;0.13;50.05;98307.59;5000130;28;20145;-66
2023/01/17 08:10:45;;;;;;;0.73;0.08;;;;;;;-0.28;50.75;98282.56;5003106;28;20063;-66
2023/01/17 08:13:13;;;;;;;4.35;0.10;;;;;;;0.08;49.64;98284.66;4998787;28;20309;-68
2023/01/17 08:15:40;;;;;;;1.48;0.38;;;;;;;0.09;49.32;98294.00;5001137;28;20521;-68
2023/01/17 08:18:08;;;;;;;0.50;0.10;;;;;;;0.31;49.19;98300.91;5000984;28;20046;-70
2023/01/17 08:20:34;;;;;;;0.95;0.65;;;;;;;-0.03;49.71;98302.19;5000792;28;20088;-68
2023/01/17 08:22:59;;;;;;;3.45;0.08;;;;;;;0.22;49.75;98308.06;5000304;28;20045;-68
2023/01/17 08:25:25;;;;;;;1.45;0.50;;;;;;;-0.10;50.44;98298.16;5001226;28;20065;-68
2023/01/17 08:27:55;;;;;;;2.65;0.10;;;;;;;0.09;49.73;98301.72;5001430;28;20077;-67
2023/01/17 08:30:21;;;;;;;3.40;0.32;;;;;;;-0.05;50.94;98309.13;4989366;28;20040;-67
2023/01/17 08:32:48;;;;;;;5.72;0.70;;;;;;;-0.33;51.47;98317.81;5008426;28;20050;-67
2023/01/17 08:35:14;;;;;;;0.65;0.00;;;;;;;-0.24;51.50;98324.34;5007806;28;20035;-68
2023/01/17 08:37:39;;;;;;;1.75;0.10;;;;;;;-0.47;51.97;98338.00;4990601;28;20142;-67
2023/01/17 08:40:07;;;;;;;2.83;0.17;;;;;;;-0.20;51.31;98331.03;4978153;28;20088;-68
2023/01/17 08:42:38;;;;;;;5.22;0.13;;;;;;;-0.01;50.87;98336.34;4990236;28;20072;-67
2023/01/17 08:45:05;;;;;;;7.82;0.25;;;;;;;-0.45;51.67;98341.38;4992572;28;20038;-67
2023/01/17 08:47:32;;;;;;;5.95;0.22;;;;;;;-0.71;52.00;98340.53;5003953;28;20415;-67
2023/01/17 08:50:00;;;;;;;2.42;0.10;;;;;;;-0.36;51.34;98351.28;5000351;28;20041;-67
2023/01/17 08:52:26;;;;;;;4.18;0.30;;;;;;;-0.73;51.67;98356.84;4998837;28;20058;-68
2023/01/17 08:54:52;;;;;;;1.85;0.00;;;;;;;-0.38;50.59;98353.91;4967099;28;20177;-67
2023/01/17 08:57:19;;;;;;;5.85;0.10;;;;;;;-0.50;50.15;98354.34;4982928;28;20489;-67
2023/01/17 08:59:47;;;;;;;0.20;0.13;;;;;;;-0.35;49.45;98348.69;5003380;28;20037;-68
2023/01/17 09:02:14;;;;;;;4.45;0.25;;;;;;;-0.16;48.87;98353.97;4998211;28;20064;-68
2023/01/17 09:04:46;;;;;;;1.02;0.10;;;;;;;-0.25;48.63;98359.44;5000808;28;20088;-69
2023/01/17 09:07:12;;;;;;;1.48;0.10;;;;;;;0.07;47.77;98363.41;4973236;28;20544;-68
2023/01/17 09:09:40;;;;;;;5.53;0.25;;;;;;;0.09;47.12;98372.81;4998611;28;20037;-68
2023/01/17 09:12:05;;;;;;;0.20;0.00;;;;;;;0.60;46.33;98375.13;5024060;28;20775;-69
2023/01/17 09:14:34;;;;;;;0.95;0.08;;;;;;;0.99;45.91;98377.03;4980937;28;20032;-68
2023/01/17 09:17:04;;;;;;;0.75;0.35;;;;;;;1.48;45.40;98369.88;4982012;28;20478;-68
2023/01/17 09:19:30;;;;;;;3.35;0.00;;;;;;;2.63;43.75;98381.91;4995750;28;20037;-68
2023/01/17 09:21:55;;;;;;;1.27;0.20;;;;;;;2.94;44.34;98385.63;4998853;28;20037;-68
2023/01/17 09:24:21;;;;;;;9.05;0.20;;;;;;;3.78;41.91;98388.34;4985323;28;20041;-68
2023/01/17 09:26:48;;;;;;;1.20;0.03;;;;;;;3.80;41.07;98402.84;5002136;28;20090;-67
2023/01/17 09:29:16;;;;;;;0.10;0.10;;;;;;;4.34;39.64;98399.19;4996761;28;20856;-67
2023/01/17 09:31:45;;;;;;;2.78;0.10;;;;;;;4.64;39.72;98386.38;4996864;28;20132;-67
2023/01/17 09:34:12;;;;;;;0.35;0.10;;;;;;;5.32;38.98;98386.00;4996953;28;20048;-67
2023/01/17 09:36:40;;;;;;;0.10;0.00;;;;;;;5.40;38.69;98394.16;4995068;28;20033;-66
2023/01/17 09:39:07;;;;;;;6.40;0.73;;;;;;;5.41;38.25;98397.59;4996272;28;20911;-67
2023/01/17 09:41:55;;;;;;;0.28;0.00;;;;;;;5.63;37.90;98405.75;4998964;28;20138;-66
2023/01/17 09:44:23;;;;;;;1.45;0.10;;;;;;;4.64;38.33;98425.19;4955078;28;20931;-68
2023/01/17 09:46:53;;;;;;;2.35;0.10;;;;;;;2.83;42.48;98431.75;4995737;28;20037;-67
2023/01/17 09:49:30;;;;;;;0.20;0.10;;;;;;;1.71;45.81;98459.00;4998307;28;20081;-69
2023/01/17 09:51:57;;;;;;;2.00;0.20;;;;;;;1.28;48.17;98470.19;4996327;28;20037;-66
2023/01/17 09:54:28;;;;;;;0.60;0.10;;;;;;;0.13;51.44;98474.53;4996518;28;20069;-69
2023/01/17 09:57:02;;;;;;;1.90;0.10;;;;;;;-0.23;53.48;98474.94;4998138;28;20083;-68
2023/01/17 09:59:59;;;;;;;3.83;0.10;;;;;;;0.58;51.07;98448.06;4995220;28;20720;-70
2023/01/17 10:02:47;;;;;;;0.13;0.00;;;;;;;0.60;50.54;98434.25;4986059;28;20469;-68
2023/01/17 10:05:40;;;;;;;0.40;0.00;;;;;;;0.76;50.76;98436.25;4996420;28;20119;-65
2023/01/17 10:08:48;;;;;;;2.00;0.00;;;;;;;0.83;50.60;98427.38;4973877;28;20470;-67
2023/01/17 10:11:42;;;;;;;1.20;0.10;;;;;;;0.89;50.23;98427.16;4980128;28;20056;-68
2023/01/17 10:14:38;;;;;;;3.45;0.20;;;;;;;1.14;50.77;98418.47;5001084;28;20041;-66
2023/01/17 10:17:20;;;;;;;2.42;0.40;;;;;;;1.69;49.88;98416.22;4996861;28;20507;-67
2023/01/17 10:20:32;;;;;;;0.28;0.00;;;;;;;2.08;49.45;98421.34;5000986;28;20120;-67
2023/01/17 10:23:26;;;;;;;5.32;0.70;;;;;;;2.53;47.28;98427.94;5005524;28;20045;-67
2023/01/17 10:25:56;;;;;;;1.65;0.32;;;;;;;2.67;46.74;98429.88;4996589;28;20378;-68
2023/01/17 10:28:36;;;;;;;0.40;0.00;;;;;;;2.91;45.01;98432.19;5002213;28;20103;-67
2023/01/17 10:31:11;;;;;;;1.23;0.10;;;;;;;3.25;45.42;98425.41;4988691;28;20033;-68
2023/01/17 10:33:44;;;;;;;2.38;0.10;;;;;;;3.15;42.63;98420.69;4999249;28;20092;-69
2023/01/17 10:36:17;;;;;;;0.45;0.00;;;;;;;2.13;44.46;98429.72;5004165;28;20088;-68
2023/01/17 10:38:49;;;;;;;0.40;0.00;;;;;;;2.16;43.64;98423.59;4991578;28;20473;-68
2023/01/17 10:41:26;;;;;;;;;;;;;;;3.13;42.94;98425.09;5005271;28;20029;-69
2023/01/17 10:44:00;;;;;;;0.30;0.00;;;;;;;2.35;43.90;98424.47;4998656;28;19921;-69
2023/01/17 10:46:50;;;;;;;1.23;0.10;;;;;;;2.20;43.68;98429.44;5001864;28;20046;-67
2023/01/17 10:49:22;;;;;;;0.43;0.08;;;;;;;3.07;43.11;98428.00;4965698;28;20045;-67
2023/01/17 10:52:07;;;;;;;1.85;0.10;;;;;;;3.00;42.25;98426.59;4983816;28;20100;-67
2023/01/17 10:55:07;;;;;;;2.05;0.20;;;;;;;3.25;43.37;98426.28;5002817;28;20092;-68
2023/01/17 10:57:46;;;;;;;1.67;0.20;;;;;;;3.68;42.90;98419.00;4987288;28;20057;-73
2023/01/17 11:00:23;;;;;;;10.80;0.70;;;;;;;3.45;42.73;98427.91;4983308;28;20060;-69
2023/01/17 11:02:50;;;;;;;0.25;0.00;;;;;;;2.72;43.55;98438.22;5003680;28;20138;-68
2023/01/17 11:05:25;;;;;;;0.57;0.20;;;;;;;1.88;45.21;98429.94;4983854;28;20095;-68
2023/01/17 11:08:02;;;;;;;1.95;0.10;;;;;;;1.55;45.74;98426.22;5002771;28;20078;-67
2023/01/17 11:10:47;;;;;;;3.47;0.68;;;;;;;1.75;46.85;98433.13;5001054;28;20630;-68
2023/01/17 11:13:34;;;;;;;5.88;0.03;;;;;;;1.94;46.63;98434.00;4991234;28;20127;-68
2023/01/17 11:16:04;;;;;;;5.28;0.20;;;;;;;1.53;46.92;98431.47;4999529;28;20036;-67
2023/01/17 11:18:33;;;;;;;6.32;0.10;;;;;;;1.68;47.62;98435.13;5004715;28;20054;-68
2023/01/17 11:21:17;;;;;;;0.55;0.47;;;;;;;1.64;47.53;98421.56;5004191;28;20065;-66
2023/01/17 11:23:55;;;;;;;0.20;0.00;;;;;;;0.97;47.84;98425.13;5001811;28;20045;-68
2023/01/17 11:26:33;;;;;;;1.60;0.00;;;;;;;2.19;46.02;98418.28;5001475;28;20049;-69
2023/01/17 11:29:26;;;;;;;1.42;0.10;;;;;;;2.45;45.05;98424.03;4999312;28;20049;-68
2023/01/17 11:31:55;;;;;;;0.32;0.20;;;;;;;1.79;46.84;98420.03;4983008;28;20042;-68
2023/01/17 11:34:25;;;;;;;0.35;0.00;;;;;;;1.70;47.40;98435.88;4995555;28;20045;-68
2023/01/17 11:37:32;;;;;;;2.22;0.30;;;;;;;2.31;45.44;98425.50;4986955;28;20033;-66
2023/01/17 11:40:19;;;;;;;1.60;0.05;;;;;;;2.79;43.66;98433.63;4946167;28;20356;-68
2023/01/17 11:42:45;;;;;;;1.95;0.15;;;;;;;2.36;43.50;98420.13;4999380;28;20060;-68
2023/01/17 11:45:27;;;;;;;1.55;0.00;;;;;;;2.55;44.42;98433.00;4991994;28;20030;-68
2023/01/17 11:48:10;;;;;;;;;;;;;;;2.07;44.11;98435.16;4992042;28;20190;-68
2023/01/17 11:50:46;;;;;;;0.90;0.20;;;;;;;2.18;44.40;98439.84;4988029;28;19913;-68
2023/01/17 11:53:27;;;;;;;0.57;0.03;;;;;;;2.16;44.63;98449.38;4998793;28;20076;-68
2023/01/17 11:56:14;;;;;;;0.60;0.00;;;;;;;2.26;44.11;98450.63;5001055;28;20080;-69
2023/01/17 11:58:44;;;;;;;0.00;0.00;;;;;;;2.53;43.80;98458.03;5001706;28;20313;-69
2023/01/17 12:01:34;;;;;;;22.90;1.33;;;;;;;2.84;42.88;98461.78;5001618;28;20258;-68
2023/01/17 12:04:17;;;;;;;0.40;0.00;;;;;;;2.58;43.71;98456.09;5003458;28;20041;-68
2023/01/17 12:06:58;;;;;;;0.52;0.00;;;;;;;2.83;42.87;98470.44;5004322;28;20100;-69
2023/01/17 12:09:30;;;;;;;5.35;0.43;;;;;;;3.08;42.75;98463.22;4991723;28;20679;-69
2023/01/17 12:15:29;;;;;;;0.43;0.20;;;;;;;2.17;45.68;98461.34;4999981;28;20609;-70
2023/01/17 12:18:26;;;;;;;0.57;0.00;;;;;;;1.63;46.29;98457.66;4976012;28;20049;-70
2023/01/17 12:21:13;;;;;;;0.13;0.00;;;;;;;1.92;46.26;98446.13;4995577;28;20447;-69
2023/01/17 12:23:53;;;;;;;3.00;0.20;;;;;;;1.68;46.37;98453.97;4993930;28;20045;-69
2023/01/17 12:26:23;;;;;;;0.77;0.10;;;;;;;2.63;44.94;98451.56;4976867;28;20055;-68
2023/01/17 12:28:57;;;;;;;0.35;0.00;;;;;;;1.85;45.72;98449.88;4994444;28;20088;-68
2023/01/17 12:31:43;;;;;;;0.47;0.00;;;;;;;2.67;43.88;98450.50;4999156;28;20033;-68
2023/01/17 12:34:21;;;;;;;3.78;0.00;;;;;;;2.40;42.37;98444.88;5000042;28;20049;-65
2023/01/17 12:36:55;;;;;;;0.80;0.00;;;;;;;2.26;42.06;98442.88;4985708;28;20036;-68
2023/01/17 12:39:36;;;;;;;0.00;0.00;;;;;;;2.30;42.37;98454.75;5002031;28;20061;-65
2023/01/17 12:42:12;;;;;;;9.75;1.17;;;;;;;2.26;41.73;98453.19;4959443;28;20053;-66
2023/01/17 12:44:50;;;;;;;5.68;0.63;;;;;;;2.96;41.58;98450.91;4997116;28;20056;-69
2023/01/17 12:47:18;;;;;;;2.60;0.10;;;;;;;2.85;42.23;98453.16;4996710;28;20169;-67
2023/01/17 12:50:08;;;;;;;1.02;0.32;;;;;;;2.48;42.13;98453.06;4983244;28;20522;-67
2023/01/17 12:52:50;;;;;;;0.60;0.00;;;;;;;1.74;44.27;98460.63;4996593;28;20104;-68
2023/01/17 12:55:23;;;;;;;0.10;0.00;;;;;;;1.87;44.17;98454.03;4997952;28;20487;-67
2023/01/17 12:57:56;;;;;;;1.73;0.30;;;;;;;0.95;46.79;98475.78;4981753;28;20486;-67
2023/01/17 13:00:25;;;;;;;1.10;0.20;;;;;;;0.55;49.25;98490.16;4999033;28;20127;-67
2023/01/17 13:03:19;;;;;;;1.45;0.00;;;;;;;0.51;50.46;98491.16;4996173;28;20076;-67
2023/01/17 13:05:47;;;;;;;0.70;0.10;;;;;;;0.87;49.81;98491.50;4999252;28;20029;-67
2023/01/17 13:08:28;;;;;;;0.30;0.00;;;;;;;0.40;50.02;98498.41;4998516;28;20546;-67
2023/01/17 13:11:09;;;;;;;2.72;0.10;;;;;;;0.77;49.64;98507.31;4997870;28;20032;-67
2023/01/17 13:13:46;;;;;;;0.30;0.00;;;;;;;0.70;50.56;98493.84;5000343;28;20466;-68
2023/01/17 13:16:14;;;;;;;0.38;0.00;;;;;;;0.99;50.52;98481.63;5001868;28;20487;-67
2023/01/17 13:18:45;;;;;;;8.05;0.45;;;;;;;1.50;50.17;98481.31;5000584;28;20084;-67
2023/01/17 13:21:31;;;;;;;6.00;0.20;;;;;;;1.99;49.52;98480.19;5001586;28;20030;-68
2023/01/17 13:24:05;;;;;;;12.07;0.30;;;;;;;1.86;48.36;98473.00;5022196;28;20128;-68
2023/01/17 13:26:51;;;;;;;2.55;0.20;;;;;;;2.34;49.15;98470.91;4982359;28;20033;-67
2023/01/17 13:29:26;;;;;;;9.75;0.65;;;;;;;2.62;48.31;98478.22;4998906;28;20052;-68
2023/01/17 13:32:36;;;;;;;0.38;0.13;;;;;;;2.81;47.06;98474.84;4983786;28;20063;-68